Malcolm Mc Kinnon Airport
KSSI : rendu visible

Aérodrome :











RETROUVEZ-NOUS SUR...

 
LOGIN :

S'inscrire | Disclaimer

   EN    FR    IT 

 









Légende :    VFR   VFR Marginal   IFR   IFR Intensif   IFR Très Intensif
Visi : 
Plafond : 
>= 8 km
>= 3000ft
5 à 8 km
1000 à 3000 ft
1500m à 5 km
500 à 1000 ft
800 à 1500m
200 à 500 ft
< 800m
< 200 ft
Symboles :   Orages  Brouillard  Fortes neiges  Fortes précipitations  Vent > 20 kt






- Altitude de l'aérodrome : 19 ft


KSSI - Malcolm Mc Kinnon

DERNIER METAR :
  • 270453Z AUTO 29011G23KT 10SM CLR 13/06 A2996 RMK AO2 SLP145 T01280056 401890128

METARs EXPIRÉS :
  • 270353Z AUTO 28012KT 10SM BKN065 13/07 A2995 RMK AO2 SLP144 T01330072
  • 270253Z AUTO 29008G19KT 250V320 10SM OVC046 14/09 A2992 RMK AO2 RAB09E22 PRESFR SLP132 P0000 60001 T01440094 53008

TAF KSSI
Valide du 27 à 06h jusqu'au 28 à 06h UTC


270520Z 2706/2806 30014G21KT P6SM BKN250
FM272300 30005KT P6SM SKC



MET'MAP, la Météo Aéronautique d'un coup d'oeil ! - Copyright ORBIFLY Décembre 2007 - Disclaimer

ORBIFLY MET'MAP TEAM :

Programmation & Développement : Alexandra Zaïnal
Sur une idée originale de : Baudouin d'Aumeries
Assistance à la programmation : Marc-Olivier Méhu
Soutien technique & logistique : Manuel Goepfert

Contact : metmap@orbifly.com




SOURCES & CREDITS :

   NOAA       Earth
Advisory